Time;durP1;ratioP1;P1;durP2;ratioP2;P2;SDS_P1;SDS_P2;PMS_P1;PMS_P2;Temp;Humidity;BMP_temperature;BMP_pressure;BME280_temperature;BME280_humidity;BME280_pressure;Samples;Min_cycle;Max_cycle;Signal;HPM_P1;HPM_P2
2022/08/17 00:00:42;;;;;;;30.77;27.55;;;21.20;99.90;;;;;;5036612;28;20083;-81
2022/08/17 00:03:21;;;;;;;32.75;29.08;;;21.10;99.90;;;;;;5036442;28;20060;-79
2022/08/17 00:05:54;;;;;;;33.88;30.33;;;21.10;99.90;;;;;;5036610;28;20053;-81
2022/08/17 00:08:30;;;;;;;30.42;27.35;;;21.00;99.90;;;;;;5036992;28;20050;-82
2022/08/17 00:10:57;;;;;;;31.25;28.05;;;21.00;99.90;;;;;;5036619;28;20054;-80
2022/08/17 00:13:30;;;;;;;30.88;27.50;;;21.00;99.90;;;;;;5036644;28;20049;-80
2022/08/17 00:15:59;;;;;;;34.47;29.58;;;21.10;99.90;;;;;;5036378;28;20144;-80
2022/08/17 00:18:27;;;;;;;33.53;29.92;;;21.00;99.90;;;;;;5036379;28;20042;-80
2022/08/17 00:20:55;;;;;;;32.33;28.52;;;21.10;99.90;;;;;;5035038;28;20092;-80
2022/08/17 00:23:21;;;;;;;30.70;27.45;;;21.00;99.90;;;;;;5036224;28;20107;-80
2022/08/17 00:25:47;;;;;;;29.48;26.65;;;21.00;99.90;;;;;;5035862;28;20481;-81
2022/08/17 00:28:15;;;;;;;31.05;27.73;;;21.00;99.90;;;;;;5035776;28;20484;-81
2022/08/17 00:30:42;;;;;;;33.40;29.80;;;21.00;99.90;;;;;;5036113;28;20477;-81
2022/08/17 00:33:14;;;;;;;31.67;28.40;;;21.00;99.90;;;;;;5035713;28;20575;-80
2022/08/17 00:35:41;;;;;;;33.33;29.95;;;21.00;99.90;;;;;;5036163;28;20154;-80
2022/08/17 00:38:08;;;;;;;33.70;30.30;;;20.90;99.90;;;;;;5035863;28;20045;-81
2022/08/17 00:40:47;;;;;;;31.90;28.77;;;20.90;99.90;;;;;;5035863;28;20041;-80
2022/08/17 00:43:29;;;;;;;32.92;29.40;;;20.90;99.90;;;;;;5035950;28;20106;-79
2022/08/17 00:45:55;;;;;;;31.83;28.63;;;20.70;99.90;;;;;;5035671;28;20063;-82
2022/08/17 00:48:20;;;;;;;33.85;30.40;;;20.80;99.90;;;;;;5034667;28;20076;-81
2022/08/17 00:51:00;;;;;;;35.57;30.30;;;20.70;99.90;;;;;;5034702;28;20081;-81
2022/08/17 00:53:29;;;;;;;32.45;28.95;;;20.70;99.90;;;;;;5035605;28;20053;-81
2022/08/17 00:55:58;;;;;;;29.95;26.85;;;20.70;99.90;;;;;;5035512;28;20183;-80
2022/08/17 00:58:24;;;;;;;31.77;28.25;;;20.60;99.90;;;;;;5035392;28;20049;-82
2022/08/17 01:00:51;;;;;;;31.02;27.75;;;20.60;99.90;;;;;;5035191;28;20508;-81
2022/08/17 01:03:19;;;;;;;;;;;20.60;99.90;;;;;;5035501;28;20096;-81
2022/08/17 01:05:49;;;;;;;30.30;27.00;;;20.50;99.90;;;;;;5035198;28;19975;-81
2022/08/17 01:08:18;;;;;;;31.27;27.83;;;20.50;99.90;;;;;;5035389;28;20046;-81
2022/08/17 01:10:52;;;;;;;30.60;27.40;;;20.50;99.90;;;;;;5034248;28;20485;-81
2022/08/17 01:13:19;;;;;;;30.52;27.10;;;20.50;99.90;;;;;;5035340;28;20100;-80
2022/08/17 01:16:03;;;;;;;29.02;25.95;;;20.40;99.90;;;;;;5035493;28;20041;-81
2022/08/17 01:18:31;;;;;;;28.90;25.83;;;20.40;99.90;;;;;;5035187;28;20049;-81
2022/08/17 01:20:59;;;;;;;27.10;24.25;;;20.40;99.90;;;;;;5034121;28;20053;-79
2022/08/17 01:23:27;;;;;;;29.25;24.85;;;20.30;99.90;;;;;;5035441;28;20396;-81
2022/08/17 01:25:59;;;;;;;25.92;23.23;;;20.20;99.90;;;;;;5035384;28;20049;-81
2022/08/17 01:28:29;;;;;;;25.38;22.77;;;20.20;99.90;;;;;;5035033;28;20049;-79
2022/08/17 01:30:58;;;;;;;25.02;22.42;;;20.20;99.90;;;;;;5035333;28;20033;-81
2022/08/17 01:33:23;;;;;;;26.02;23.33;;;20.20;99.90;;;;;;5034887;28;20049;-82
2022/08/17 01:35:49;;;;;;;25.70;22.97;;;20.10;99.90;;;;;;5033805;28;20046;-81
2022/08/17 01:38:16;;;;;;;25.33;22.77;;;20.20;99.90;;;;;;5034787;28;20049;-81
2022/08/17 01:40:50;;;;;;;20.88;18.77;;;20.20;99.90;;;;;;5034741;28;20326;-80
2022/08/17 01:43:21;;;;;;;24.25;21.77;;;20.10;99.90;;;;;;5033901;28;20048;-80
2022/08/17 01:45:50;;;;;;;25.38;22.75;;;20.10;99.90;;;;;;5034730;28;20462;-81
2022/08/17 01:48:18;;;;;;;28.83;23.92;;;20.10;99.90;;;;;;5033441;28;20060;-79
2022/08/17 01:50:45;;;;;;;27.70;23.85;;;20.00;99.90;;;;;;5033805;28;20064;-80
2022/08/17 01:53:28;;;;;;;26.50;23.83;;;20.10;99.90;;;;;;5034595;28;20507;-80
2022/08/17 01:56:09;;;;;;;27.00;24.42;;;20.00;99.90;;;;;;5034864;28;20049;-79
2022/08/17 01:58:36;;;;;;;28.50;24.67;;;20.00;99.90;;;;;;5034619;28;20041;-81
2022/08/17 02:01:04;;;;;;;29.08;25.23;;;20.00;99.90;;;;;;5034126;28;20071;-79
2022/08/17 02:03:31;;;;;;;30.17;24.70;;;20.00;99.90;;;;;;5034086;28;20526;-81
2022/08/17 02:05:56;;;;;;;;;;;19.80;99.90;;;;;;5034438;28;20387;-81
2022/08/17 02:08:22;;;;;;;28.88;25.88;;;20.00;99.90;;;;;;5033094;28;20059;-81
2022/08/17 02:10:49;;;;;;;27.45;24.63;;;19.90;99.90;;;;;;5034176;28;20088;-80
2022/08/17 02:13:15;;;;;;;;;;;19.90;99.90;;;;;;5035057;28;20124;-79
2022/08/17 02:15:41;;;;;;;25.00;22.45;;;19.90;99.90;;;;;;5033460;28;19928;-82
2022/08/17 02:18:09;;;;;;;27.90;25.10;;;19.90;99.90;;;;;;5034010;28;20477;-80
2022/08/17 02:20:36;;;;;;;27.92;24.92;;;19.90;99.90;;;;;;5032726;28;20045;-82
2022/08/17 02:23:03;;;;;;;28.98;26.10;;;19.80;99.90;;;;;;5034044;28;20103;-80
2022/08/17 02:25:31;;;;;;;28.73;25.83;;;20.00;99.90;;;;;;5034073;28;20128;-81
2022/08/17 02:27:57;;;;;;;26.90;23.85;;;19.90;99.90;;;;;;5033922;28;20496;-81
2022/08/17 02:30:23;;;;;;;26.97;24.23;;;19.90;99.90;;;;;;5034059;28;20080;-80
2022/08/17 02:32:51;;;;;;;27.17;24.38;;;20.00;99.90;;;;;;5033968;28;20046;-81
2022/08/17 02:35:17;;;;;;;27.10;24.42;;;19.90;99.90;;;;;;5034033;28;20058;-82
2022/08/17 02:37:42;;;;;;;28.10;25.20;;;19.90;99.90;;;;;;5033798;28;20147;-80
2022/08/17 02:40:09;;;;;;;29.20;26.23;;;19.90;99.90;;;;;;5033838;28;20451;-80
2022/08/17 02:42:39;;;;;;;30.67;27.52;;;19.90;99.90;;;;;;5033910;28;20045;-81
2022/08/17 02:45:09;;;;;;;29.15;26.25;;;19.90;99.90;;;;;;5034276;28;20091;-80
2022/08/17 02:47:35;;;;;;;29.42;26.48;;;19.90;99.90;;;;;;5034194;28;20038;-80
2022/08/17 02:50:02;;;;;;;30.25;27.08;;;19.90;99.90;;;;;;5033271;28;20056;-80
2022/08/17 02:52:36;;;;;;;28.38;25.40;;;19.90;99.90;;;;;;5032741;28;20583;-81
2022/08/17 02:55:04;;;;;;;25.45;22.77;;;19.90;99.90;;;;;;5034005;28;20045;-82
2022/08/17 02:57:30;;;;;;;28.92;25.73;;;19.90;99.90;;;;;;5033812;28;20045;-81
2022/08/17 02:59:55;;;;;;;27.57;24.97;;;19.80;99.90;;;;;;5033595;28;20053;-81
2022/08/17 03:02:21;;;;;;;27.67;24.80;;;19.90;99.90;;;;;;5032662;28;20130;-81
2022/08/17 03:04:47;;;;;;;30.10;27.10;;;19.90;99.90;;;;;;5033715;28;20045;-80
2022/08/17 03:07:12;;;;;;;29.60;26.37;;;19.90;99.90;;;;;;5033316;28;20049;-81
2022/08/17 03:09:38;;;;;;;28.40;25.50;;;19.90;99.90;;;;;;5033665;28;20095;-81
2022/08/17 03:12:13;;;;;;;30.77;27.53;;;19.90;99.90;;;;;;5033893;28;20080;-79
2022/08/17 03:14:41;;;;;;;32.13;28.80;;;19.90;99.90;;;;;;5033856;28;20091;-81
2022/08/17 03:17:08;;;;;;;31.48;27.33;;;19.90;99.90;;;;;;5033732;28;20137;-80
2022/08/17 03:19:34;;;;;;;34.40;30.77;;;20.00;99.90;;;;;;5032250;28;20067;-82
2022/08/17 03:22:00;;;;;;;34.43;29.03;;;20.00;99.90;;;;;;5033255;28;20497;-81
2022/08/17 03:24:25;;;;;;;33.83;30.10;;;20.00;99.90;;;;;;5033377;28;20041;-80
2022/08/17 03:26:51;;;;;;;33.13;29.60;;;20.00;99.90;;;;;;5031837;28;20080;-80
2022/08/17 03:29:18;;;;;;;32.47;28.60;;;20.00;99.90;;;;;;5033712;28;20064;-80
2022/08/17 03:31:48;;;;;;;30.98;27.65;;;20.20;99.90;;;;;;5033416;28;20050;-82
2022/08/17 03:34:16;;;;;;;31.85;28.45;;;19.90;99.90;;;;;;5035601;28;20045;-80
2022/08/17 03:36:42;;;;;;;30.52;27.30;;;20.00;99.90;;;;;;5037038;28;20053;-81
2022/08/17 03:39:08;;;;;;;31.55;28.48;;;20.00;99.90;;;;;;5036996;28;20114;-80
2022/08/17 03:41:34;;;;;;;31.00;27.70;;;20.00;99.90;;;;;;5037279;28;20473;-79
2022/08/17 03:43:59;;;;;;;32.63;29.13;;;20.00;99.90;;;;;;5036907;28;20045;-81
2022/08/17 03:57:24;;;;;;;30.67;27.63;;;20.10;99.90;;;;;;5036588;28;20049;-81
2022/08/17 03:59:51;;;;;;;31.10;27.93;;;20.10;99.90;;;;;;5036626;28;20362;-80
2022/08/17 04:02:25;;;;;;;;;;;20.10;99.90;;;;;;5037018;28;20050;-80
2022/08/17 04:04:51;;;;;;;31.10;27.83;;;20.10;99.90;;;;;;5036564;28;19960;-80
2022/08/17 04:07:18;;;;;;;31.43;28.20;;;20.00;99.90;;;;;;5036683;28;20080;-81
2022/08/17 04:09:44;;;;;;;28.63;25.73;;;20.00;99.90;;;;;;5036544;28;20052;-82
2022/08/17 04:12:10;;;;;;;33.03;29.77;;;20.00;99.90;;;;;;5036194;28;20473;-80
2022/08/17 04:14:37;;;;;;;30.85;27.65;;;20.20;99.90;;;;;;5036482;28;20241;-82
2022/08/17 04:17:04;;;;;;;27.08;24.48;;;20.10;99.90;;;;;;5036436;28;20045;-81
2022/08/17 04:19:30;;;;;;;33.33;29.73;;;20.00;99.90;;;;;;5036225;28;20041;-81
2022/08/17 04:21:56;;;;;;;33.13;29.53;;;20.00;99.90;;;;;;5036354;28;20630;-81
2022/08/17 04:24:23;;;;;;;33.40;29.95;;;20.00;99.90;;;;;;5036151;28;20288;-81
2022/08/17 04:26:49;;;;;;;32.60;29.45;;;20.00;99.90;;;;;;5036112;28;20053;-82
2022/08/17 04:29:15;;;;;;;33.67;30.17;;;20.00;99.90;;;;;;5036675;28;20041;-80
2022/08/17 04:31:41;;;;;;;33.25;29.73;;;20.00;99.90;;;;;;5036108;28;20060;-82
2022/08/17 04:34:08;;;;;;;33.85;29.95;;;20.00;99.90;;;;;;5034942;28;20057;-82
2022/08/17 04:36:33;;;;;;;31.67;28.30;;;20.00;99.90;;;;;;5036087;28;20049;-80
2022/08/17 04:38:59;;;;;;;34.53;30.07;;;20.00;99.90;;;;;;5035975;28;20095;-80
2022/08/17 04:44:10;;;;;;;32.63;29.27;;;20.00;99.90;;;;;;5035350;28;20053;-81
2022/08/17 04:46:36;;;;;;;33.60;30.40;;;20.00;99.90;;;;;;5035030;28;20049;-82
2022/08/17 04:49:06;;;;;;;33.70;30.27;;;20.00;99.90;;;;;;5034487;28;20056;-82
2022/08/17 04:51:40;;;;;;;35.50;31.77;;;20.00;99.90;;;;;;5035685;28;20088;-81
2022/08/17 04:54:18;;;;;;;36.05;32.45;;;20.00;99.90;;;;;;5036368;28;20053;-82
2022/08/17 04:56:44;;;;;;;34.25;30.65;;;20.00;99.90;;;;;;5036042;28;20125;-81
2022/08/17 04:59:20;;;;;;;34.10;30.70;;;20.00;99.90;;;;;;5035432;28;20081;-81
2022/08/17 05:01:50;;;;;;;37.55;33.67;;;20.00;99.90;;;;;;5035292;28;20049;-81
2022/08/17 05:04:21;;;;;;;36.38;32.65;;;20.00;99.90;;;;;;5035672;28;20137;-80
2022/08/17 05:06:48;;;;;;;32.90;29.35;;;20.00;99.90;;;;;;5035316;28;20095;-81
2022/08/17 05:09:16;;;;;;;35.88;32.20;;;19.90;99.90;;;;;;5035017;28;20148;-81
2022/08/17 05:11:42;;;;;;;36.65;32.75;;;20.00;99.90;;;;;;5033497;28;20057;-80
2022/08/17 05:14:07;;;;;;;37.90;33.88;;;20.00;99.90;;;;;;5034956;28;20500;-82
2022/08/17 05:16:33;;;;;;;37.20;33.43;;;19.90;99.90;;;;;;5035101;28;20049;-82
2022/08/17 05:18:59;;;;;;;35.57;31.90;;;19.90;99.90;;;;;;5035082;28;20095;-80
2022/08/17 05:21:26;;;;;;;38.80;34.83;;;19.90;99.90;;;;;;5034730;28;20048;-82
2022/08/17 05:23:52;;;;;;;36.22;32.35;;;19.80;99.90;;;;;;5034796;28;20501;-82
2022/08/17 05:26:19;;;;;;;39.38;35.30;;;19.90;99.90;;;;;;5034923;28;20132;-80
2022/08/17 05:28:44;;;;;;;37.20;33.30;;;19.80;99.90;;;;;;5034870;28;20048;-80
2022/08/17 05:31:10;;;;;;;38.20;34.23;;;19.80;99.90;;;;;;5034874;28;20037;-81
2022/08/17 05:33:38;;;;;;;38.30;34.50;;;19.90;99.90;;;;;;5034707;28;20141;-81
2022/08/17 05:36:07;;;;;;;39.03;34.90;;;19.80;99.90;;;;;;5034608;28;20045;-81
2022/08/17 05:38:33;;;;;;;38.75;34.85;;;19.80;99.90;;;;;;5033637;28;20461;-80
2022/08/17 05:41:02;;;;;;;33.97;30.42;;;19.90;99.90;;;;;;5034460;28;20088;-81
2022/08/17 05:43:30;;;;;;;38.40;34.33;;;19.80;99.90;;;;;;5034473;28;20045;-81
2022/08/17 05:46:13;;;;;;;35.97;32.28;;;19.80;99.90;;;;;;5034596;28;20095;-82
2022/08/17 05:48:52;;;;;;;40.67;36.20;;;19.90;99.90;;;;;;5034974;28;20089;-81
2022/08/17 05:51:58;;;;;;;39.55;35.65;;;19.90;99.90;;;;;;5034489;28;20081;-81
2022/08/17 05:54:49;;;;;;;40.97;36.47;;;19.90;99.90;;;;;;5034432;28;20041;-82
2022/08/17 05:57:36;;;;;;;35.50;31.75;;;19.90;99.90;;;;;;5033880;28;20060;-81
2022/08/17 06:00:19;;;;;;;36.67;32.97;;;19.90;99.90;;;;;;5034541;28;20068;-80
2022/08/17 06:03:26;;;;;;;36.33;32.58;;;19.90;99.90;;;;;;5034370;28;20088;-80
2022/08/17 06:05:54;;;;;;;33.28;30.02;;;19.90;99.90;;;;;;4953849;29;20051;-81
2022/08/17 06:08:49;;;;;;;31.58;28.38;;;20.00;99.90;;;;;;5018872;28;20054;-82
2022/08/17 06:11:18;;;;;;;33.25;29.80;;;20.00;99.90;;;;;;5034095;28;20132;-80
2022/08/17 06:13:51;;;;;;;32.95;28.55;;;20.00;99.90;;;;;;5034116;28;20096;-82
2022/08/17 06:16:21;;;;;;;31.58;28.25;;;20.10;99.90;;;;;;5034155;28;20064;-81
2022/08/17 06:18:54;;;;;;;32.63;29.30;;;20.10;99.90;;;;;;5033995;28;20041;-82
2022/08/17 06:21:21;;;;;;;34.95;29.77;;;20.10;99.90;;;;;;5032915;28;20041;-80
2022/08/17 06:23:52;;;;;;;31.58;28.38;;;20.10;99.90;;;;;;5033707;28;20050;-81
2022/08/17 06:26:24;;;;;;;34.33;29.85;;;20.20;99.90;;;;;;5034163;28;20049;-81
2022/08/17 06:28:59;;;;;;;26.58;23.90;;;20.20;99.90;;;;;;5034263;28;20041;-81
2022/08/17 06:31:30;;;;;;;32.08;28.38;;;20.30;99.90;;;;;;5032600;28;20056;-81
2022/08/17 06:33:58;;;;;;;30.42;27.40;;;20.30;99.90;;;;;;5033824;28;20401;-81
2022/08/17 06:36:33;;;;;;;30.33;26.70;;;20.30;99.90;;;;;;5033636;28;20057;-82
2022/08/17 06:39:23;;;;;;;27.20;24.42;;;20.30;99.90;;;;;;5034077;28;20122;-82
2022/08/17 06:41:51;;;;;;;26.33;23.60;;;20.30;99.90;;;;;;5033564;28;20038;-82
2022/08/17 06:44:29;;;;;;;25.48;22.98;;;20.40;99.90;;;;;;5032717;28;20053;-81
2022/08/17 06:47:11;;;;;;;24.23;21.65;;;20.30;99.90;;;;;;5033669;28;20107;-81
2022/08/17 06:50:05;;;;;;;25.55;22.95;;;20.40;99.90;;;;;;5033774;28;20037;-81
2022/08/17 06:52:36;;;;;;;26.83;23.77;;;20.50;99.90;;;;;;5010638;28;20049;-81
2022/08/17 06:55:11;;;;;;;22.27;19.98;;;20.50;99.90;;;;;;5033694;28;20045;-82
2022/08/17 06:57:44;;;;;;;25.60;22.90;;;20.60;99.90;;;;;;5033756;28;20049;-82
2022/08/17 07:00:25;;;;;;;24.02;21.25;;;20.80;99.90;;;;;;5033478;28;20388;-82
2022/08/17 07:03:09;;;;;;;24.05;21.77;;;20.90;99.90;;;;;;5033886;28;20511;-82
2022/08/17 07:05:46;;;;;;;23.95;21.50;;;21.10;99.90;;;;;;5033575;28;20049;-81
2022/08/17 07:08:33;;;;;;;20.80;18.55;;;21.20;99.90;;;;;;5034517;28;20443;-82
2022/08/17 07:11:08;;;;;;;22.88;19.92;;;21.40;99.90;;;;;;5036038;28;20142;-80
2022/08/17 07:13:37;;;;;;;24.88;20.73;;;21.50;99.90;;;;;;5037498;28;20400;-81
2022/08/17 07:16:24;;;;;;;23.33;20.92;;;21.60;99.90;;;;;;5037271;28;20132;-81
2022/08/17 07:18:52;;;;;;;20.60;18.67;;;21.70;99.90;;;;;;5037398;28;20041;-82
2022/08/17 07:21:25;;;;;;;23.70;20.20;;;21.90;99.90;;;;;;5037975;28;20076;-82
2022/08/17 07:24:12;;;;;;;21.27;19.08;;;22.00;99.90;;;;;;5041188;28;20088;-81
2022/08/17 07:26:37;;;;;;;20.83;18.70;;;22.20;99.90;;;;;;5037283;28;20041;-82
2022/08/17 07:29:04;;;;;;;20.53;18.53;;;22.30;99.90;;;;;;5037199;28;20318;-81
2022/08/17 07:31:32;;;;;;;22.85;19.70;;;22.50;99.90;;;;;;5037292;28;20037;-82
2022/08/17 07:34:05;;;;;;;21.27;19.08;;;22.80;99.90;;;;;;5037106;28;20049;-81
2022/08/17 07:36:33;;;;;;;20.48;18.48;;;22.90;99.90;;;;;;5037322;28;20053;-81
2022/08/17 07:39:01;;;;;;;20.13;18.02;;;23.10;99.90;;;;;;5036582;28;20144;-82
2022/08/17 07:41:28;;;;;;;20.77;18.83;;;23.20;99.90;;;;;;5036291;28;20472;-80
2022/08/17 07:43:55;;;;;;;20.83;17.38;;;23.30;99.90;;;;;;5036760;28;20459;-82
2022/08/17 07:49:16;;;;;;;18.73;16.73;;;23.60;99.90;;;;;;5036827;28;20049;-81
2022/08/17 07:51:41;;;;;;;17.90;16.13;;;23.80;99.90;;;;;;5036635;28;20045;-82
2022/08/17 07:54:20;;;;;;;19.17;16.10;;;23.70;99.90;;;;;;5036682;28;20515;-81
2022/08/17 07:56:51;;;;;;;18.42;16.50;;;23.70;99.90;;;;;;5037108;28;20096;-80
2022/08/17 07:59:25;;;;;;;17.48;15.68;;;23.80;99.90;;;;;;5036579;28;20038;-82
2022/08/17 08:01:53;;;;;;;18.33;16.42;;;24.00;99.90;;;;;;5036424;28;20086;-82
2022/08/17 08:04:41;;;;;;;18.35;16.45;;;24.20;99.90;;;;;;5036103;28;20049;-81
2022/08/17 08:07:17;;;;;;;19.38;16.80;;;24.20;99.90;;;;;;5035550;28;20050;-81
2022/08/17 08:10:08;;;;;;;14.20;12.75;;;24.30;99.90;;;;;;5036171;28;20469;-82
2022/08/17 08:12:38;;;;;;;19.70;15.88;;;24.50;99.90;;;;;;5036412;28;20427;-81
2022/08/17 08:15:16;;;;;;;17.95;16.15;;;24.60;99.90;;;;;;5036280;28;20065;-81
2022/08/17 08:17:55;;;;;;;15.57;14.02;;;24.70;99.90;;;;;;5036081;28;20053;-82
2022/08/17 08:20:39;;;;;;;18.52;16.38;;;24.80;99.90;;;;;;5035862;28;20041;-81
2022/08/17 08:23:17;;;;;;;17.50;15.65;;;24.90;99.90;;;;;;5036131;28;20048;-81
2022/08/17 08:26:07;;;;;;;16.13;14.48;;;24.90;99.90;;;;;;5036365;28;20045;-81
2022/08/17 08:28:51;;;;;;;15.88;14.25;;;24.90;99.90;;;;;;5036009;28;20057;-80
2022/08/17 08:31:31;;;;;;;17.60;15.80;;;24.90;99.90;;;;;;5035845;28;20050;-81
2022/08/17 08:34:17;;;;;;;20.02;14.70;;;24.80;99.90;;;;;;5036232;28;20127;-82
2022/08/17 08:36:42;;;;;;;15.77;14.18;;;24.80;99.90;;;;;;5034848;28;20119;-81
2022/08/17 08:39:17;;;;;;;17.60;15.80;;;24.70;99.90;;;;;;5035610;28;20050;-79
2022/08/17 08:42:08;;;;;;;15.77;14.27;;;24.60;99.90;;;;;;5035295;28;20045;-81
2022/08/17 08:44:55;;;;;;;19.38;17.38;;;24.60;99.90;;;;;;5023068;28;20057;-82
2022/08/17 08:47:33;;;;;;;17.83;15.93;;;24.50;99.90;;;;;;5035446;28;20081;-83
2022/08/17 08:50:08;;;;;;;18.27;16.02;;;24.40;99.90;;;;;;5035432;28;20400;-80
2022/08/17 08:52:34;;;;;;;16.38;14.77;;;24.30;99.90;;;;;;5035493;28;20042;-82
2022/08/17 08:55:25;;;;;;;18.30;16.40;;;24.20;99.90;;;;;;5035391;28;20056;-82
2022/08/17 08:58:06;;;;;;;17.40;15.18;;;24.20;99.90;;;;;;5034226;28;20047;-82
2022/08/17 09:00:36;;;;;;;16.35;14.63;;;24.10;99.90;;;;;;5035162;28;20041;-81
2022/08/17 09:03:23;;;;;;;17.63;15.65;;;24.10;99.90;;;;;;5035708;28;20049;-80
2022/08/17 09:06:37;;;;;;;17.98;16.13;;;24.10;99.90;;;;;;5035506;28;20460;-81
2022/08/17 09:09:41;;;;;;;19.33;17.17;;;24.10;99.90;;;;;;5018004;28;20060;-81
2022/08/17 09:12:25;;;;;;;21.00;18.90;;;24.20;99.90;;;;;;5034444;28;20053;-80
2022/08/17 09:15:04;;;;;;;19.85;17.75;;;24.10;99.90;;;;;;5035035;28;20045;-82
2022/08/17 09:17:49;;;;;;;18.80;17.05;;;24.10;99.90;;;;;;5035011;28;20136;-82
2022/08/17 09:20:23;;;;;;;18.60;16.75;;;24.10;99.90;;;;;;5034966;28;20111;-81
2022/08/17 09:22:56;;;;;;;16.10;14.45;;;24.10;99.90;;;;;;5034043;28;20083;-82
2022/08/17 09:25:27;;;;;;;16.55;14.85;;;24.20;99.90;;;;;;5034768;28;20547;-82
2022/08/17 09:28:04;;;;;;;17.90;16.10;;;24.20;99.90;;;;;;5034729;28;20072;-81
2022/08/17 09:30:54;;;;;;;19.17;17.23;;;24.30;99.90;;;;;;5034448;28;20063;-80
2022/08/17 09:33:25;;;;;;;16.55;14.95;;;24.30;99.90;;;;;;5033623;28;20500;-81
2022/08/17 09:36:04;;;;;;;17.65;15.82;;;24.30;99.90;;;;;;5034678;28;20096;-82
2022/08/17 09:39:02;;;;;;;18.00;16.13;;;24.30;99.90;;;;;;5035108;28;20041;-80
2022/08/17 09:41:34;;;;;;;16.50;14.82;;;24.40;99.90;;;;;;4990558;28;20061;-81
2022/08/17 09:44:27;;;;;;;16.02;14.48;;;24.40;99.90;;;;;;5034767;28;20136;-82
2022/08/17 09:47:14;;;;;;;14.90;13.25;;;24.50;99.90;;;;;;5034411;28;20045;-82
2022/08/17 09:49:47;;;;;;;12.15;10.90;;;24.60;99.90;;;;;;5034326;28;20048;-80
2022/08/17 09:52:40;;;;;;;14.32;12.93;;;24.70;99.90;;;;;;5034427;28;20042;-82
2022/08/17 09:55:06;;;;;;;13.10;11.45;;;24.80;99.90;;;;;;5029209;28;20062;-82
2022/08/17 09:57:52;;;;;;;11.73;10.40;;;25.00;99.90;;;;;;5034210;28;20056;-82
2022/08/17 10:00:18;;;;;;;13.18;11.88;;;25.20;99.90;;;;;;5034369;28;20049;-81
2022/08/17 10:03:09;;;;;;;12.20;11.00;;;25.20;99.90;;;;;;5034228;28;20050;-82
2022/08/17 10:06:05;;;;;;;12.73;11.43;;;25.20;99.90;;;;;;5034363;28;20146;-81
2022/08/17 10:08:56;;;;;;;14.20;12.80;;;25.40;99.90;;;;;;5034583;28;20048;-81
2022/08/17 10:12:14;;;;;;;12.55;11.43;;;25.40;99.90;;;;;;5034022;28;20053;-82
2022/08/17 10:14:46;;;;;;;11.90;9.80;;;25.40;99.90;;;;;;5034562;28;20053;-81
2022/08/17 10:17:32;;;;;;;11.43;10.18;;;25.50;99.90;;;;;;5028714;28;20053;-80
2022/08/17 10:20:09;;;;;;;9.77;8.77;;;25.50;99.90;;;;;;5033965;28;20037;-81
2022/08/17 10:28:20;;;;;;;9.38;8.40;;;25.60;99.90;;;;;;5033064;28;20050;-81
2022/08/17 10:30:52;;;;;;;11.65;10.48;;;25.60;99.90;;;;;;5034202;28;20045;-81
2022/08/17 10:33:23;;;;;;;12.50;11.15;;;25.60;99.90;;;;;;5033572;28;20124;-80
2022/08/17 10:35:54;;;;;;;14.18;12.68;;;25.70;99.90;;;;;;5034088;28;20116;-81
2022/08/17 10:38:35;;;;;;;13.95;11.73;;;25.60;99.90;;;;;;5032633;28;20053;-82
2022/08/17 10:41:32;;;;;;;13.55;12.15;;;25.50;99.90;;;;;;5033599;28;20081;-79
2022/08/17 10:44:12;;;;;;;13.60;12.30;;;25.50;99.90;;;;;;5037487;28;20042;-82
2022/08/17 10:47:04;;;;;;;15.43;13.52;;;25.40;99.90;;;;;;5038087;28;20049;-80
2022/08/17 10:49:33;;;;;;;14.27;12.85;;;25.50;99.90;;;;;;5037822;28;20048;-81
2022/08/17 10:52:20;;;;;;;14.00;12.70;;;25.60;99.90;;;;;;5037714;28;20128;-81
2022/08/17 10:54:55;;;;;;;15.30;13.90;;;25.60;99.90;;;;;;5037563;28;20500;-82
2022/08/17 10:57:32;;;;;;;12.98;11.60;;;25.80;99.90;;;;;;5036415;28;20053;-83
2022/08/17 11:00:09;;;;;;;15.13;12.48;;;26.00;99.90;;;;;;5032461;28;20393;-81
2022/08/17 11:02:48;;;;;;;14.10;12.73;;;26.30;99.90;;;;;;5030800;28;20095;-84
2022/08/17 11:05:49;;;;;;;15.55;13.15;;;26.60;99.90;;;;;;5033758;28;20054;-83
2022/08/17 11:08:46;;;;;;;14.55;13.10;;;26.80;99.90;;;;;;5016592;28;20041;-83
2022/08/17 11:12:06;;;;;;;16.70;12.80;;;26.90;99.90;;;;;;5017454;28;20072;-80
2022/08/17 11:14:35;;;;;;;16.75;15.05;;;27.00;99.90;;;;;;4937804;29;20055;-81
2022/08/17 11:17:24;;;;;;;16.23;14.50;;;27.10;99.90;;;;;;5002045;28;20081;-80
2022/08/17 11:20:21;;;;;;;15.65;13.82;;;27.10;99.90;;;;;;5018006;28;20049;-80
2022/08/17 11:23:36;;;;;;;17.55;15.30;;;27.10;99.90;;;;;;5017172;28;20397;-84
2022/08/17 11:26:17;;;;;;;16.85;15.10;;;26.90;99.90;;;;;;4973562;28;20054;-84
2022/08/17 11:28:49;;;;;;;19.95;17.95;;;26.90;99.90;;;;;;5016275;28;20497;-84
2022/08/17 11:31:35;;;;;;;19.42;17.40;;;26.60;99.90;;;;;;5015648;28;20220;-83
2022/08/17 11:34:20;;;;;;;19.88;17.80;;;26.50;99.90;;;;;;5017098;28;20042;-85
2022/08/17 11:37:22;;;;;;;23.15;20.85;;;26.30;99.90;;;;;;5017068;28;20192;-82
2022/08/17 11:40:15;;;;;;;20.02;17.92;;;26.10;99.90;;;;;;5017059;28;20049;-84
2022/08/17 11:42:51;;;;;;;26.67;23.80;;;25.90;99.90;;;;;;5017330;28;20049;-84
2022/08/17 11:45:36;;;;;;;22.63;20.33;;;25.60;99.90;;;;;;5016380;28;20084;-84
2022/08/17 11:51:33;;;;;;;23.05;20.55;;;25.60;99.90;;;;;;5015968;28;20046;-82
2022/08/17 11:54:01;;;;;;;23.98;21.45;;;25.60;99.90;;;;;;4998709;28;20068;-84
2022/08/17 11:56:40;;;;;;;22.02;19.83;;;25.60;99.90;;;;;;5015626;28;20397;-83
2022/08/17 11:59:44;;;;;;;26.95;23.13;;;25.60;99.90;;;;;;5016450;28;20183;-82
2022/08/17 12:02:31;;;;;;;28.33;25.27;;;25.50;99.90;;;;;;5015518;28;20046;-79
2022/08/17 12:05:26;;;;;;;30.48;26.02;;;25.50;99.90;;;;;;4999028;28;20053;-85
2022/08/17 12:08:04;;;;;;;27.48;24.52;;;25.50;99.90;;;;;;4999475;28;20096;-84
2022/08/17 12:10:33;;;;;;;25.45;22.75;;;25.50;99.90;;;;;;5015877;28;20092;-85
2022/08/17 12:13:04;;;;;;;31.38;27.38;;;25.40;99.90;;;;;;5015227;28;20120;-82
2022/08/17 12:15:47;;;;;;;30.95;27.13;;;25.20;99.90;;;;;;5015276;28;20038;-83
2022/08/17 12:18:28;;;;;;;28.83;25.80;;;25.30;99.90;;;;;;5016438;28;20056;-83
2022/08/17 12:21:12;;;;;;;25.65;22.95;;;25.40;99.90;;;;;;5015557;28;20046;-83
2022/08/17 12:23:46;;;;;;;28.10;24.80;;;25.50;99.90;;;;;;4999320;28;20068;-85
2022/08/17 12:26:29;;;;;;;27.42;24.30;;;25.50;99.90;;;;;;5016413;28;20054;-86
2022/08/17 12:29:16;;;;;;;28.83;25.58;;;25.60;99.90;;;;;;5016590;28;20082;-82
2022/08/17 12:31:47;;;;;;;29.00;26.00;;;25.60;99.90;;;;;;5015047;28;20046;-84
2022/08/17 12:34:28;;;;;;;30.20;26.73;;;25.60;99.90;;;;;;4999251;28;20374;-84
2022/08/17 12:37:04;;;;;;;28.27;25.27;;;25.60;99.90;;;;;;5016422;28;20046;-84
2022/08/17 12:39:30;;;;;;;31.50;28.20;;;25.60;99.90;;;;;;5015456;28;20038;-80
2022/08/17 12:41:58;;;;;;;32.85;29.13;;;25.60;99.90;;;;;;5015186;28;20050;-81
2022/08/17 12:44:30;;;;;;;30.40;27.13;;;25.60;99.90;;;;;;5015326;28;20496;-84
2022/08/17 12:47:17;;;;;;;30.67;27.52;;;25.50;99.90;;;;;;5016254;28;20046;-84
2022/08/17 12:49:49;;;;;;;32.85;29.10;;;25.60;99.90;;;;;;5016356;28;20131;-89
2022/08/17 12:52:26;;;;;;;32.80;28.45;;;25.50;99.90;;;;;;5014946;28;20057;-83
2022/08/17 12:54:59;;;;;;;34.50;29.33;;;25.50;99.90;;;;;;5014695;28;20441;-84
2022/08/17 12:57:36;;;;;;;35.15;31.27;;;25.50;99.90;;;;;;5014869;28;20050;-83
2022/08/17 13:00:16;;;;;;;34.40;30.70;;;25.40;99.90;;;;;;5015108;28;20045;-85
2022/08/17 13:03:00;;;;;;;37.90;32.33;;;25.40;99.90;;;;;;5015761;28;20053;-85
2022/08/17 13:05:35;;;;;;;34.63;30.92;;;25.30;99.90;;;;;;4998446;28;20141;-85
2022/08/17 13:08:12;;;;;;;37.38;33.28;;;25.30;99.90;;;;;;4998261;28;20057;-84
2022/08/17 13:10:38;;;;;;;36.80;32.95;;;25.30;99.90;;;;;;5014165;28;20048;-84
2022/08/17 13:13:26;;;;;;;38.33;34.33;;;25.10;99.90;;;;;;5015416;28;20092;-85
2022/08/17 13:16:00;;;;;;;37.40;31.52;;;25.20;99.90;;;;;;5015309;28;20096;-85
2022/08/17 13:18:37;;;;;;;41.28;35.42;;;25.30;99.90;;;;;;5014660;28;20391;-84
2022/08/17 13:21:29;;;;;;;37.95;34.05;;;25.30;99.90;;;;;;5015251;28;20042;-84
2022/08/17 13:24:02;;;;;;;37.25;30.75;;;25.30;99.90;;;;;;5014389;28;20046;-85
2022/08/17 13:26:33;;;;;;;37.30;33.47;;;25.30;99.90;;;;;;5015008;28;20455;-85
2022/08/17 13:28:59;;;;;;;35.67;31.73;;;25.20;99.90;;;;;;5014155;28;20589;-85
2022/08/17 13:31:27;;;;;;;37.17;33.25;;;25.30;99.90;;;;;;5014422;28;20046;-85